Time,TemperatureF,DewpointF,PressureIn,WindDirection,WindDirectionDegrees,WindSpeedMPH,WindSpeedGustMPH,Humidity,HourlyPrecipIn,Conditions,Clouds,dailyrainin,SoftwareType,DateUTC
2013-03-15 00:09:00,25.4,13.0,29.87,West,268,4.0,-999.0,60,-99.99,,,0.00,weatherlink.com 1.10,2013-03-15 04:09:00,
2013-03-15 00:24:00,25.5,13.0,29.87,NW,309,6.0,-999.0,59,-99.99,,,0.00,weatherlink.com 1.10,2013-03-15 04:24:00,
2013-03-15 00:40:00,25.5,12.0,29.87,WSW,239,5.0,-999.0,57,-99.99,,,0.00,weatherlink.com 1.10,2013-03-15 04:40:00,
2013-03-15 00:55:00,25.5,12.0,29.87,WNW,287,4.0,-999.0,56,-99.99,,,0.00,weatherlink.com 1.10,2013-03-15 04:55:00,
2013-03-15 01:10:00,25.3,11.0,29.87,WNW,282,6.0,-999.0,56,-99.99,,,0.00,weatherlink.com 1.10,2013-03-15 05:10:00,
2013-03-15 01:25:00,25.3,11.0,29.87,WNW,292,11.0,-999.0,55,-99.99,,,0.00,weatherlink.com 1.10,2013-03-15 05:25:00,
2013-03-15 01:40:00,25.2,11.0,29.88,WNW,290,8.0,-999.0,55,-99.99,,,0.00,weatherlink.com 1.10,2013-03-15 05:40:00,
2013-03-15 01:55:00,24.9,11.0,29.88,West,277,5.0,-999.0,57,-99.99,,,0.00,weatherlink.com 1.10,2013-03-15 05:55:00,
2013-03-15 02:10:00,24.7,12.0,29.88,WSW,249,9.0,-999.0,60,-99.99,,,0.00,weatherlink.com 1.10,2013-03-15 06:10:00,
2013-03-15 02:25:00,24.3,13.0,29.88,WNW,298,3.0,-999.0,63,-99.99,,,0.00,weatherlink.com 1.10,2013-03-15 06:25:00,
2013-03-15 02:40:00,24.0,13.0,29.88,WNW,295,7.0,-999.0,63,-99.99,,,0.00,weatherlink.com 1.10,2013-03-15 06:40:00,
2013-03-15 02:55:00,23.8,12.0,29.88,West,271,3.0,-999.0,62,-99.99,,,0.00,weatherlink.com 1.10,2013-03-15 06:55:00,
2013-03-15 03:10:00,23.6,12.0,29.88,WNW,303,11.0,-999.0,61,-99.99,,,0.00,weatherlink.com 1.10,2013-03-15 07:10:00,
2013-03-15 03:25:00,23.5,12.0,29.88,NW,304,10.0,-999.0,61,-99.99,,,0.00,weatherlink.com 1.10,2013-03-15 07:25:00,
2013-03-15 03:40:00,23.3,12.0,29.88,West,268,6.0,-999.0,62,-99.99,,,0.00,weatherlink.com 1.10,2013-03-15 07:40:00,
2013-03-15 03:55:00,23.0,12.0,29.88,NW,313,3.0,-999.0,63,-99.99,,,0.00,weatherlink.com 1.10,2013-03-15 07:55:00,
2013-03-15 04:10:00,22.7,13.0,29.88,WNW,295,4.0,-999.0,67,-99.99,,,0.00,weatherlink.com 1.10,2013-03-15 08:10:00,
2013-03-15 04:25:00,22.0,14.0,29.88,NNW,340,6.0,-999.0,70,-99.99,,,0.00,weatherlink.com 1.10,2013-03-15 08:25:00,
2013-03-15 04:40:00,21.3,14.0,29.88,NW,326,3.0,-999.0,72,-99.99,,,0.00,weatherlink.com 1.10,2013-03-15 08:40:00,
2013-03-15 04:55:00,20.9,13.0,29.88,NW,311,3.0,-999.0,72,-99.99,,,0.00,weatherlink.com 1.10,2013-03-15 08:55:00,
2013-03-15 05:10:00,20.5,13.0,29.88,West,280,4.0,-999.0,73,-99.99,,,0.00,weatherlink.com 1.10,2013-03-15 09:10:00,
2013-03-15 05:25:00,20.3,13.0,29.88,WNW,292,1.0,-999.0,73,-99.99,,,0.00,weatherlink.com 1.10,2013-03-15 09:25:00,
2013-03-15 05:40:00,19.9,13.0,29.89,NW,309,1.0,-999.0,73,-99.99,,,0.00,weatherlink.com 1.10,2013-03-15 09:40:00,
2013-03-15 05:55:00,19.7,13.0,29.89,NNW,332,3.0,-999.0,74,-99.99,,,0.00,weatherlink.com 1.10,2013-03-15 09:55:00,
2013-03-15 06:10:00,19.5,13.0,29.89,NNW,338,1.0,-999.0,75,-99.99,,,0.00,weatherlink.com 1.10,2013-03-15 10:10:00,
2013-03-15 06:25:00,19.3,12.0,29.89,NNW,335,0.0,-999.0,74,-99.99,,,0.00,weatherlink.com 1.10,2013-03-15 10:25:00,
2013-03-15 06:40:00,19.2,12.0,29.89,West,281,0.0,-999.0,74,-99.99,,,0.00,weatherlink.com 1.10,2013-03-15 10:40:00,
2013-03-15 06:55:00,19.0,12.0,29.89,West,281,1.0,-999.0,74,-99.99,,,0.00,weatherlink.com 1.10,2013-03-15 10:55:00,
2013-03-15 07:10:00,18.5,12.0,29.88,West,281,0.0,-999.0,74,-99.99,,,0.00,weatherlink.com 1.10,2013-03-15 11:10:00,
2013-03-15 07:25:00,18.2,12.0,29.88,WNW,282,0.0,-999.0,76,-99.99,,,0.00,weatherlink.com 1.10,2013-03-15 11:25:00,
2013-03-15 07:40:00,18.1,12.0,29.88,West,281,0.0,-999.0,76,-99.99,,,0.00,weatherlink.com 1.10,2013-03-15 11:40:00,
2013-03-15 07:55:00,18.1,12.0,29.88,West,281,0.0,-999.0,78,-99.99,,,0.00,weatherlink.com 1.10,2013-03-15 11:55:00,
2013-03-15 08:10:00,18.5,12.0,29.88,SSW,213,0.0,-999.0,77,-99.99,,,0.00,weatherlink.com 1.10,2013-03-15 12:10:00,
2013-03-15 08:25:00,19.5,13.0,29.88,NNW,330,1.0,-999.0,75,-99.99,,,0.00,weatherlink.com 1.10,2013-03-15 12:25:00,
2013-03-15 08:40:00,20.7,13.0,29.88,NNW,330,1.0,-999.0,73,-99.99,,,0.00,weatherlink.com 1.10,2013-03-15 12:40:00,
2013-03-15 08:55:00,22.4,14.0,29.88,NW,313,0.0,-999.0,70,-99.99,,,0.00,weatherlink.com 1.10,2013-03-15 12:55:00,
2013-03-15 09:10:00,23.6,14.0,29.88,SSW,211,0.0,-999.0,67,-99.99,,,0.00,weatherlink.com 1.10,2013-03-15 13:10:00,
2013-03-15 09:25:00,24.7,14.0,29.87,SSW,211,0.0,-999.0,65,-99.99,,,0.00,weatherlink.com 1.10,2013-03-15 13:25:00,
2013-03-15 09:40:00,25.7,15.0,29.87,SW,215,2.0,-999.0,64,-99.99,,,0.00,weatherlink.com 1.10,2013-03-15 13:40:00,
2013-03-15 09:55:00,26.2,15.0,29.86,South,189,2.0,-999.0,64,-99.99,,,0.00,weatherlink.com 1.10,2013-03-15 13:55:00,
2013-03-15 10:11:00,27.0,16.0,29.86,SSW,192,1.0,-999.0,63,-99.99,,,0.00,weatherlink.com 1.10,2013-03-15 14:11:00,
2013-03-15 10:26:00,28.3,16.0,29.85,West,263,5.0,-999.0,60,-99.99,,,0.00,weatherlink.com 1.10,2013-03-15 14:26:00,
2013-03-15 10:41:00,28.5,16.0,29.84,SSW,193,1.0,-999.0,60,-99.99,,,0.00,weatherlink.com 1.10,2013-03-15 14:41:00,
2013-03-15 10:56:00,28.9,16.0,29.84,SSW,196,6.0,-999.0,58,-99.99,,,0.00,weatherlink.com 1.10,2013-03-15 14:56:00,
2013-03-15 11:11:00,28.9,14.0,29.83,WSW,251,0.0,-999.0,55,-99.99,,,0.00,weatherlink.com 1.10,2013-03-15 15:11:00,
2013-03-15 11:26:00,28.9,15.0,29.82,SW,220,2.0,-999.0,57,-99.99,,,0.00,weatherlink.com 1.10,2013-03-15 15:26:00,
2013-03-15 11:41:00,29.6,16.0,29.81,SSW,211,9.0,-999.0,58,-99.99,,,0.00,weatherlink.com 1.10,2013-03-15 15:41:00,
2013-03-15 12:11:00,32.5,17.0,29.78,ESE,122,5.0,-999.0,54,-99.99,,,0.00,weatherlink.com 1.10,2013-03-15 16:11:00,
2013-03-15 12:26:00,32.9,18.0,29.78,WSW,250,7.0,-999.0,55,-99.99,,,0.00,weatherlink.com 1.10,2013-03-15 16:26:00,
2013-03-15 12:41:00,33.1,19.0,29.77,SSE,162,3.0,-999.0,56,-99.99,,,0.00,weatherlink.com 1.10,2013-03-15 16:41:00,
2013-03-15 12:56:00,33.8,19.0,29.77,South,182,3.0,-999.0,55,-99.99,,,0.00,weatherlink.com 1.10,2013-03-15 16:56:00,
2013-03-15 13:26:00,34.4,20.0,29.75,SE,132,4.0,-999.0,57,-99.99,,,0.00,weatherlink.com 1.10,2013-03-15 17:26:00,
2013-03-15 13:41:00,34.8,20.0,29.75,WSW,254,2.0,-999.0,56,-99.99,,,0.00,weatherlink.com 1.10,2013-03-15 17:41:00,
2013-03-15 13:56:00,34.4,22.0,29.74,WSW,245,4.0,-999.0,60,-99.99,,,0.00,weatherlink.com 1.10,2013-03-15 17:56:00,
2013-03-15 14:26:00,33.4,23.0,29.72,SSW,198,10.0,-999.0,67,-99.99,,,0.00,weatherlink.com 1.10,2013-03-15 18:26:00,
2013-03-15 14:56:00,32.7,24.0,29.70,SW,221,2.0,-999.0,70,-99.99,,,0.00,weatherlink.com 1.10,2013-03-15 18:56:00,
2013-03-15 15:11:00,32.9,24.0,29.69,WSW,253,2.0,-999.0,70,-99.99,,,0.00,weatherlink.com 1.10,2013-03-15 19:11:00,
2013-03-15 16:11:00,33.5,25.0,29.68,SSW,205,9.0,-999.0,72,-99.99,,,0.00,weatherlink.com 1.10,2013-03-15 20:11:00,
2013-03-15 16:26:00,33.7,25.0,29.68,WSW,248,2.0,-999.0,71,-99.99,,,0.00,weatherlink.com 1.10,2013-03-15 20:26:00,
2013-03-15 16:41:00,33.8,26.0,29.68,South,190,0.0,-999.0,72,-99.99,,,0.00,weatherlink.com 1.10,2013-03-15 20:41:00,
2013-03-15 16:57:00,33.4,26.0,29.68,WSW,248,1.0,-999.0,73,-99.99,,,0.00,weatherlink.com 1.10,2013-03-15 20:57:00,
2013-03-15 17:11:00,33.0,26.0,29.68,SSW,194,1.0,-999.0,75,-99.99,,,0.00,weatherlink.com 1.10,2013-03-15 21:11:00,
2013-03-15 17:27:00,32.8,26.0,29.68,SW,236,1.0,-999.0,75,-99.99,,,0.00,weatherlink.com 1.10,2013-03-15 21:27:00,
2013-03-15 17:41:00,32.7,26.0,29.68,SW,234,1.0,-999.0,76,-99.99,,,0.00,weatherlink.com 1.10,2013-03-15 21:41:00,
2013-03-15 17:57:00,32.7,26.0,29.68,WSW,242,0.0,-999.0,77,-99.99,,,0.00,weatherlink.com 1.10,2013-03-15 21:57:00,
2013-03-15 18:12:00,32.6,26.0,29.68,West,259,0.0,-999.0,77,-99.99,,,0.00,weatherlink.com 1.10,2013-03-15 22:12:00,
2013-03-15 18:27:00,32.7,27.0,29.68,WSW,257,1.0,-999.0,78,-99.99,,,0.00,weatherlink.com 1.10,2013-03-15 22:27:00,
2013-03-15 18:42:00,32.9,27.0,29.68,WSW,246,0.0,-999.0,80,-99.99,,,0.00,weatherlink.com 1.10,2013-03-15 22:42:00,
2013-03-15 18:57:00,33.0,27.0,29.68,SW,235,2.0,-999.0,80,-99.99,,,0.00,weatherlink.com 1.10,2013-03-15 22:57:00,
2013-03-15 19:11:00,33.0,28.0,29.68,West,273,0.0,-999.0,81,-99.99,,,0.00,weatherlink.com 1.10,2013-03-15 23:11:00,
2013-03-15 19:26:00,32.9,28.0,29.68,West,278,1.0,-999.0,82,-99.99,,,0.00,weatherlink.com 1.10,2013-03-15 23:26:00,
2013-03-15 19:56:00,33.2,29.0,29.69,WSW,250,6.0,-999.0,83,-99.99,,,0.00,weatherlink.com 1.10,2013-03-15 23:56:00,
2013-03-15 20:12:00,33.2,29.0,29.69,SSW,210,1.0,-999.0,83,-99.99,,,0.00,weatherlink.com 1.10,2013-03-16 00:12:00,
2013-03-15 20:27:00,33.0,28.0,29.70,WSW,242,0.0,-999.0,83,-99.99,,,0.00,weatherlink.com 1.10,2013-03-16 00:27:00,
2013-03-15 20:42:00,32.7,28.0,29.70,SE,140,4.0,-999.0,83,-99.99,,,0.00,weatherlink.com 1.10,2013-03-16 00:42:00,
2013-03-15 20:57:00,32.5,28.0,29.70,WSW,249,2.0,-999.0,83,-99.99,,,0.00,weatherlink.com 1.10,2013-03-16 00:57:00,
2013-03-15 21:12:00,32.5,28.0,29.71,WSW,248,0.0,-999.0,83,-99.99,,,0.00,weatherlink.com 1.10,2013-03-16 01:12:00,
2013-03-15 21:27:00,32.4,28.0,29.71,WNW,286,0.0,-999.0,84,-99.99,,,0.00,weatherlink.com 1.10,2013-03-16 01:27:00,
2013-03-15 21:42:00,32.2,28.0,29.71,SW,229,0.0,-999.0,84,-99.99,,,0.00,weatherlink.com 1.10,2013-03-16 01:42:00,
2013-03-15 21:57:00,32.1,28.0,29.71,West,267,1.0,-999.0,83,-99.99,,,0.00,weatherlink.com 1.10,2013-03-16 01:57:00,
2013-03-15 22:12:00,32.0,27.0,29.70,WNW,296,2.0,-999.0,82,-99.99,,,0.00,weatherlink.com 1.10,2013-03-16 02:12:00,
2013-03-15 22:27:00,32.0,26.0,29.71,WSW,257,2.0,-999.0,79,-99.99,,,0.00,weatherlink.com 1.10,2013-03-16 02:27:00,
2013-03-15 22:42:00,32.0,26.0,29.71,WNW,284,3.0,-999.0,78,-99.99,,,0.00,weatherlink.com 1.10,2013-03-16 02:42:00,
2013-03-15 22:57:00,32.1,26.0,29.71,West,267,0.0,-999.0,77,-99.99,,,0.00,weatherlink.com 1.10,2013-03-16 02:57:00,
2013-03-15 23:12:00,32.2,25.0,29.72,WNW,291,0.0,-999.0,75,-99.99,,,0.00,weatherlink.com 1.10,2013-03-16 03:12:00,
2013-03-15 23:27:00,32.3,25.0,29.72,NW,307,1.0,-999.0,74,-99.99,,,0.00,weatherlink.com 1.10,2013-03-16 03:27:00,
2013-03-15 23:42:00,32.3,25.0,29.73,WNW,288,0.0,-999.0,73,-99.99,,,0.00,weatherlink.com 1.10,2013-03-16 03:42:00,
2013-03-15 23:57:00,32.1,26.0,29.74,NNW,329,3.0,-999.0,79,-99.99,,,0.00,weatherlink.com 1.10,2013-03-16 03:57:00,